Time;durP1;ratioP1;P1;durP2;ratioP2;P2;SDS_P1;SDS_P2;PMS_P1;PMS_P2;Temp;Humidity;BMP_temperature;BMP_pressure;BME280_temperature;BME280_humidity;BME280_pressure;Samples;Min_cycle;Max_cycle;Signal;HPM_P1;HPM_P2
2020/12/12 00:00:55;;;;;;;27.20;16.20;;;3.30;76.50;;;;;;5042447;28;20060;-62
2020/12/12 00:03:21;;;;;;;30.98;16.92;;;3.40;76.20;;;;;;5042609;28;20030;-62
2020/12/12 00:05:46;;;;;;;30.33;17.95;;;3.20;76.80;;;;;;5044382;28;20040;-62
2020/12/12 00:08:12;;;;;;;28.38;16.73;;;3.10;76.80;;;;;;5042920;28;20060;-62
2020/12/12 00:10:38;;;;;;;29.75;16.40;;;3.10;76.90;;;;;;5041602;28;20037;-62
2020/12/12 00:13:03;;;;;;;29.73;15.68;;;3.10;76.90;;;;;;5040472;28;20356;-62
2020/12/12 00:15:29;;;;;;;27.55;15.25;;;3.10;76.80;;;;;;5042702;28;20076;-62
2020/12/12 00:17:54;;;;;;;28.92;16.02;;;3.20;76.90;;;;;;5043960;28;20040;-62
2020/12/12 00:20:20;;;;;;;31.60;16.50;;;3.20;76.70;;;;;;5042990;28;20040;-62
2020/12/12 00:22:45;;;;;;;29.88;16.92;;;3.10;77.20;;;;;;5042788;28;20113;-62
2020/12/12 00:25:11;;;;;;;29.52;17.15;;;3.00;77.00;;;;;;5042339;28;20038;-59
2020/12/12 00:27:37;;;;;;;28.27;16.38;;;3.10;77.20;;;;;;5042167;28;20045;-62
2020/12/12 00:30:04;;;;;;;27.95;16.40;;;3.20;77.00;;;;;;5044053;28;20038;-62
2020/12/12 00:32:29;;;;;;;29.70;16.08;;;3.10;77.10;;;;;;5042402;28;20045;-62
2020/12/12 00:34:56;;;;;;;32.10;16.83;;;3.20;77.20;;;;;;5042712;28;20034;-62
2020/12/12 00:37:22;;;;;;;29.63;16.40;;;3.10;77.10;;;;;;5041396;28;20248;-62
2020/12/12 00:39:48;;;;;;;30.25;16.63;;;3.10;77.30;;;;;;5036054;28;20044;-62
2020/12/12 00:42:14;;;;;;;27.30;15.75;;;3.10;77.40;;;;;;5023842;28;20045;-62
2020/12/12 00:44:39;;;;;;;30.70;16.10;;;3.10;77.40;;;;;;5044240;28;20029;-62
2020/12/12 00:47:05;;;;;;;28.95;16.27;;;3.20;77.00;;;;;;5042406;28;20117;-62
2020/12/12 00:49:31;;;;;;;30.42;17.00;;;3.10;77.40;;;;;;5042374;28;20041;-62
2020/12/12 00:51:56;;;;;;;29.23;16.00;;;3.20;77.20;;;;;;5045327;28;20041;-62
2020/12/12 00:54:22;;;;;;;28.73;16.67;;;3.20;77.00;;;;;;5042809;28;20025;-62
2020/12/12 00:56:48;;;;;;;28.08;15.25;;;3.30;76.90;;;;;;5027663;28;20037;-62
2020/12/12 00:59:13;;;;;;;31.00;16.75;;;3.30;77.00;;;;;;5044105;28;20088;-62
2020/12/12 01:01:39;;;;;;;29.95;16.27;;;3.30;76.80;;;;;;5046135;28;20202;-62
2020/12/12 01:04:04;;;;;;;27.63;15.43;;;3.30;76.80;;;;;;5045891;28;20030;-62
2020/12/12 01:06:30;;;;;;;29.75;16.17;;;3.30;76.70;;;;;;5041219;28;20030;-62
2020/12/12 01:08:56;;;;;;;28.77;15.93;;;3.40;76.50;;;;;;5027138;28;20349;-62
2020/12/12 01:11:21;;;;;;;31.38;16.27;;;3.40;76.50;;;;;;5044992;28;20045;-62
2020/12/12 01:13:47;;;;;;;27.00;15.82;;;3.40;76.30;;;;;;5031724;28;20033;-62
2020/12/12 01:16:14;;;;;;;26.45;15.98;;;3.30;76.40;;;;;;5034956;28;20033;-62
2020/12/12 01:18:40;;;;;;;27.10;15.18;;;3.20;76.60;;;;;;5045628;28;20228;-62
2020/12/12 01:21:06;;;;;;;28.58;15.25;;;3.20;77.00;;;;;;5046055;28;20116;-61
2020/12/12 01:23:32;;;;;;;26.08;15.23;;;3.30;76.90;;;;;;5047223;28;20026;-62
2020/12/12 01:25:58;;;;;;;29.38;16.25;;;3.30;76.90;;;;;;5044685;28;20045;-62
2020/12/12 01:28:24;;;;;;;30.70;16.05;;;3.30;76.70;;;;;;5045363;28;20037;-62
2020/12/12 01:30:52;;;;;;;28.52;16.20;;;3.30;76.60;;;;;;5045089;28;20252;-62
2020/12/12 01:33:17;;;;;;;27.45;15.30;;;3.40;76.70;;;;;;5045236;28;20033;-62
2020/12/12 01:35:43;;;;;;;27.45;15.50;;;3.40;76.50;;;;;;5047028;28;20124;-62
2020/12/12 01:38:09;;;;;;;26.50;14.38;;;3.30;76.40;;;;;;5028772;28;20038;-62
2020/12/12 01:40:35;;;;;;;27.95;14.60;;;3.40;76.60;;;;;;5025354;28;20268;-62
2020/12/12 01:43:00;;;;;;;28.88;15.55;;;3.50;75.90;;;;;;5032821;28;20105;-62
2020/12/12 01:45:26;;;;;;;26.70;15.27;;;3.40;76.30;;;;;;5045290;28;20048;-62
2020/12/12 01:47:51;;;;;;;27.50;15.48;;;3.50;76.30;;;;;;5046996;28;20037;-62
2020/12/12 01:50:17;;;;;;;25.40;14.55;;;3.40;76.20;;;;;;5027394;28;20045;-62
2020/12/12 01:52:42;;;;;;;23.58;14.38;;;3.50;75.90;;;;;;5025219;28;20137;-62
2020/12/12 01:55:08;;;;;;;27.48;15.10;;;3.40;76.20;;;;;;5023929;28;20067;-62
2020/12/12 01:57:33;;;;;;;23.25;14.30;;;3.40;76.20;;;;;;5023877;28;20038;-62
2020/12/12 01:59:59;;;;;;;26.40;14.93;;;3.40;76.20;;;;;;5025442;28;20333;-62
2020/12/12 02:02:25;;;;;;;24.27;13.73;;;3.40;75.90;;;;;;5023850;28;20038;-62
2020/12/12 02:04:54;;;;;;;25.98;14.68;;;3.40;75.90;;;;;;5023890;28;20345;-62
2020/12/12 02:07:21;;;;;;;26.15;14.35;;;3.30;76.30;;;;;;5024683;28;20225;-62
2020/12/12 02:09:46;;;;;;;25.73;14.65;;;3.40;76.20;;;;;;5024768;28;20046;-62
2020/12/12 02:12:12;;;;;;;25.58;13.77;;;3.40;76.00;;;;;;5023519;28;20061;-62
2020/12/12 02:14:38;;;;;;;24.55;13.93;;;3.50;75.70;;;;;;5026244;28;20040;-62
2020/12/12 02:17:05;;;;;;;25.17;14.57;;;3.40;75.70;;;;;;5023732;28;20329;-62
2020/12/12 02:19:31;;;;;;;26.83;15.00;;;3.50;75.60;;;;;;5024963;28;20225;-62
2020/12/12 02:21:57;;;;;;;22.38;13.23;;;3.40;75.60;;;;;;5007298;28;20042;-62
2020/12/12 02:24:24;;;;;;;23.52;13.13;;;3.40;75.90;;;;;;5024062;28;20026;-62
2020/12/12 02:26:49;;;;;;;24.38;13.98;;;3.40;76.00;;;;;;5026284;28;20038;-62
2020/12/12 02:29:16;;;;;;;24.02;14.20;;;3.40;75.70;;;;;;5042605;28;20246;-62
2020/12/12 02:31:41;;;;;;;24.85;14.35;;;3.40;75.70;;;;;;5044371;28;20100;-62
2020/12/12 02:34:07;;;;;;;25.40;14.43;;;3.40;75.60;;;;;;5035776;28;20038;-62
2020/12/12 02:36:36;;;;;;;23.58;13.63;;;3.40;75.80;;;;;;5024342;28;20034;-62
2020/12/12 02:39:03;;;;;;;22.85;13.50;;;3.30;75.70;;;;;;5026068;28;20199;-62
2020/12/12 02:41:28;;;;;;;24.52;14.13;;;3.30;75.70;;;;;;5044355;28;20045;-62
2020/12/12 02:43:54;;;;;;;23.40;14.10;;;3.30;75.80;;;;;;5029363;28;20034;-62
2020/12/12 02:46:20;;;;;;;24.17;14.75;;;3.20;76.10;;;;;;5023157;28;20195;-62
2020/12/12 02:48:47;;;;;;;23.23;13.65;;;3.20;76.00;;;;;;5028423;28;20041;-62
2020/12/12 02:51:13;;;;;;;25.55;14.43;;;3.30;76.00;;;;;;5044047;28;20033;-62
2020/12/12 02:53:38;;;;;;;22.45;13.98;;;3.30;75.80;;;;;;5044456;28;20057;-62
2020/12/12 02:56:04;;;;;;;24.05;14.38;;;3.30;75.60;;;;;;5028157;28;20034;-62
2020/12/12 02:58:29;;;;;;;23.42;13.48;;;3.30;75.60;;;;;;5024187;28;20030;-62
2020/12/12 03:00:55;;;;;;;24.00;13.60;;;3.30;75.90;;;;;;5030730;28;20051;-62
2020/12/12 03:03:20;;;;;;;22.92;13.48;;;3.20;76.00;;;;;;5044043;28;20040;-62
2020/12/12 03:05:46;;;;;;;22.17;13.15;;;3.10;76.10;;;;;;5045077;28;20025;-63
2020/12/12 03:08:11;;;;;;;23.35;13.85;;;3.20;76.30;;;;;;5026236;28;20105;-62
2020/12/12 03:10:37;;;;;;;24.23;13.65;;;3.10;76.30;;;;;;5023849;28;20037;-62
2020/12/12 03:13:02;;;;;;;25.33;14.73;;;3.20;76.00;;;;;;5031070;28;20325;-62
2020/12/12 03:15:28;;;;;;;22.50;13.38;;;2.90;76.10;;;;;;5040196;28;20041;-62
2020/12/12 03:17:53;;;;;;;23.50;14.30;;;3.00;76.80;;;;;;5025312;28;20025;-62
2020/12/12 03:20:19;;;;;;;24.42;14.15;;;3.10;76.90;;;;;;5024006;28;20101;-62
2020/12/12 03:22:45;;;;;;;21.75;13.38;;;3.20;76.80;;;;;;5037372;28;20038;-62
2020/12/12 03:25:10;;;;;;;23.08;13.18;;;3.20;76.60;;;;;;5043557;28;20057;-62
2020/12/12 03:27:36;;;;;;;23.58;13.25;;;3.20;76.60;;;;;;5042071;28;20033;-62
2020/12/12 03:30:02;;;;;;;22.45;13.13;;;3.40;76.10;;;;;;5044875;28;20033;-62
2020/12/12 03:32:27;;;;;;;22.98;13.80;;;3.30;75.90;;;;;;5043381;28;20258;-62
2020/12/12 03:34:53;;;;;;;24.17;13.80;;;3.20;75.90;;;;;;5043162;28;20041;-62
2020/12/12 03:37:18;;;;;;;25.27;14.48;;;3.20;76.10;;;;;;5042950;28;20112;-62
2020/12/12 03:39:44;;;;;;;22.48;12.80;;;3.10;76.10;;;;;;5043067;28;20038;-62
2020/12/12 03:42:10;;;;;;;22.45;13.10;;;3.10;76.30;;;;;;5043010;28;20029;-62
2020/12/12 03:44:36;;;;;;;23.55;13.52;;;3.20;76.10;;;;;;5044617;28;20052;-62
2020/12/12 03:47:01;;;;;;;22.95;13.68;;;3.10;76.30;;;;;;5041850;28;20036;-62
2020/12/12 03:49:27;;;;;;;24.48;13.35;;;3.10;76.30;;;;;;5042684;28;20329;-62
2020/12/12 03:51:52;;;;;;;23.02;12.75;;;3.10;76.60;;;;;;5036418;28;20045;-62
2020/12/12 03:54:18;;;;;;;22.75;13.13;;;3.00;76.40;;;;;;5022667;28;20064;-62
2020/12/12 03:56:44;;;;;;;23.05;13.50;;;3.10;76.30;;;;;;5025030;28;20033;-62
2020/12/12 03:59:09;;;;;;;24.85;14.23;;;3.10;76.30;;;;;;5039237;28;20113;-62
2020/12/12 04:01:35;;;;;;;23.55;13.68;;;3.10;76.20;;;;;;5042648;28;20093;-62
2020/12/12 04:04:00;;;;;;;23.05;13.68;;;3.10;76.30;;;;;;5043134;28;20052;-62
2020/12/12 04:06:26;;;;;;;21.42;12.90;;;3.20;76.60;;;;;;5042352;28;20021;-62
2020/12/12 04:08:52;;;;;;;23.83;12.93;;;3.30;76.70;;;;;;5043861;28;20045;-62
2020/12/12 04:11:17;;;;;;;22.38;13.75;;;3.30;76.50;;;;;;5041576;28;20033;-62
2020/12/12 04:13:43;;;;;;;21.40;12.95;;;3.20;76.50;;;;;;5042820;28;20041;-62
2020/12/12 04:16:08;;;;;;;23.10;13.35;;;3.30;76.20;;;;;;5033995;28;20042;-62
2020/12/12 04:18:34;;;;;;;21.70;13.00;;;3.20;76.50;;;;;;5026905;28;20044;-62
2020/12/12 04:20:59;;;;;;;22.52;12.65;;;3.30;76.30;;;;;;5043900;28;20206;-62
2020/12/12 04:23:25;;;;;;;21.63;12.75;;;3.30;76.30;;;;;;5055758;28;20050;-62
2020/12/12 04:25:51;;;;;;;22.25;13.27;;;3.30;76.10;;;;;;5025990;28;20034;-62
2020/12/12 04:28:16;;;;;;;20.77;12.48;;;3.40;76.20;;;;;;5027012;28;20205;-62
2020/12/12 04:30:42;;;;;;;22.15;13.25;;;3.30;75.80;;;;;;5027151;28;20329;-62
2020/12/12 04:33:07;;;;;;;22.95;13.05;;;3.30;75.80;;;;;;5026859;28;20026;-62
2020/12/12 04:35:33;;;;;;;21.35;12.45;;;3.20;76.20;;;;;;5028044;28;20033;-62
2020/12/12 04:37:58;;;;;;;22.80;13.48;;;3.40;75.90;;;;;;5024333;28;20044;-62
2020/12/12 04:40:24;;;;;;;21.38;13.15;;;3.40;75.70;;;;;;5026427;28;20034;-62
2020/12/12 04:42:50;;;;;;;22.05;12.38;;;3.30;75.90;;;;;;5026472;28;20206;-62
2020/12/12 04:45:20;;;;;;;24.10;12.98;;;3.40;76.20;;;;;;5027669;28;20050;-62
2020/12/12 04:47:48;;;;;;;20.73;12.52;;;3.40;76.00;;;;;;5047904;28;20048;-62
2020/12/12 04:50:13;;;;;;;22.38;12.73;;;3.50;76.30;;;;;;5046572;28;20035;-62
2020/12/12 04:52:40;;;;;;;22.23;13.48;;;3.50;76.50;;;;;;5045966;28;20033;-62
2020/12/12 04:55:06;;;;;;;24.25;13.38;;;3.50;76.40;;;;;;5046144;28;20040;-62
2020/12/12 04:57:33;;;;;;;22.60;13.43;;;3.50;76.60;;;;;;5046276;28;20209;-62
2020/12/12 04:59:58;;;;;;;21.25;12.68;;;3.50;76.20;;;;;;5047713;28;20029;-62
2020/12/12 05:02:24;;;;;;;22.88;13.30;;;3.60;76.30;;;;;;5044895;28;20121;-63
2020/12/12 05:04:49;;;;;;;23.70;12.75;;;3.60;75.80;;;;;;5045083;28;20333;-62
2020/12/12 05:07:15;;;;;;;21.77;12.60;;;3.40;76.00;;;;;;5045784;28;20061;-62
2020/12/12 05:09:41;;;;;;;22.17;12.70;;;3.50;76.10;;;;;;5077861;28;20292;-62
2020/12/12 05:12:06;;;;;;;22.08;13.23;;;3.40;76.30;;;;;;5045620;28;20040;-62
2020/12/12 05:14:32;;;;;;;22.15;12.85;;;3.40;76.30;;;;;;5047379;28;20037;-62
2020/12/12 05:16:58;;;;;;;22.65;13.20;;;3.50;76.50;;;;;;5046008;28;20147;-62
2020/12/12 05:19:23;;;;;;;22.30;12.60;;;3.40;76.40;;;;;;5025885;28;20058;-62
2020/12/12 05:21:50;;;;;;;21.23;12.98;;;3.50;76.30;;;;;;5024306;28;20101;-62
2020/12/12 05:24:16;;;;;;;20.98;12.65;;;3.50;76.30;;;;;;5025933;28;20084;-62
2020/12/12 05:26:45;;;;;;;21.20;12.60;;;3.40;76.50;;;;;;5027158;28;20344;-62
2020/12/12 05:29:14;;;;;;;22.33;13.68;;;3.40;76.80;;;;;;4992314;28;20321;-62
2020/12/12 05:31:40;;;;;;;20.67;12.77;;;3.50;76.60;;;;;;5025626;28;20053;-63
2020/12/12 05:34:12;;;;;;;22.27;12.45;;;3.50;76.20;;;;;;5025626;28;20050;-62
2020/12/12 05:36:39;;;;;;;21.38;12.90;;;3.60;76.00;;;;;;5024884;28;20033;-62
2020/12/12 05:39:06;;;;;;;22.35;12.98;;;3.50;75.70;;;;;;5027203;28;20277;-62
2020/12/12 05:41:32;;;;;;;20.23;12.20;;;3.70;75.90;;;;;;5024501;28;20105;-63
2020/12/12 05:43:57;;;;;;;24.15;12.90;;;3.80;75.90;;;;;;5038019;28;20033;-63
2020/12/12 05:46:23;;;;;;;21.10;12.68;;;3.70;76.20;;;;;;5049928;28;20049;-62
2020/12/12 05:48:50;;;;;;;19.60;12.80;;;3.80;76.20;;;;;;5063229;28;20069;-62
2020/12/12 05:51:16;;;;;;;22.00;12.90;;;3.70;76.10;;;;;;5045006;28;20037;-62
2020/12/12 05:53:43;;;;;;;20.42;12.27;;;3.70;75.70;;;;;;5046116;28;20270;-62
2020/12/12 05:56:10;;;;;;;21.40;12.43;;;3.80;75.50;;;;;;5045327;28;20045;-62
2020/12/12 05:58:37;;;;;;;22.98;12.95;;;3.90;75.50;;;;;;5045108;28;20329;-62
2020/12/12 06:01:02;;;;;;;21.48;13.02;;;3.90;75.50;;;;;;5044747;28;20033;-63
2020/12/12 06:03:30;;;;;;;19.98;11.93;;;3.90;75.60;;;;;;5044797;28;20364;-62
2020/12/12 06:06:02;;;;;;;19.73;12.48;;;3.90;75.40;;;;;;5046240;28;20029;-63
2020/12/12 06:08:37;;;;;;;21.65;12.65;;;3.90;75.60;;;;;;5044619;28;20057;-62
2020/12/12 06:11:07;;;;;;;21.02;12.48;;;4.00;75.90;;;;;;5045171;28;20033;-62
2020/12/12 06:13:36;;;;;;;22.75;12.80;;;4.20;75.70;;;;;;5032968;28;20030;-62
2020/12/12 06:16:03;;;;;;;20.30;13.05;;;4.10;75.60;;;;;;5024790;28;20097;-62
2020/12/12 06:18:38;;;;;;;22.60;12.98;;;4.20;75.60;;;;;;5024612;28;20034;-61
2020/12/12 06:21:07;;;;;;;20.85;12.73;;;4.30;75.30;;;;;;5026064;28;20097;-62
2020/12/12 06:23:37;;;;;;;22.42;13.25;;;4.10;75.00;;;;;;5024899;28;20041;-61
2020/12/12 06:26:03;;;;;;;21.10;12.85;;;4.20;75.10;;;;;;5024492;28;20042;-61
2020/12/12 06:28:29;;;;;;;22.35;13.35;;;4.10;75.10;;;;;;5024468;28;20038;-61
2020/12/12 06:30:57;;;;;;;21.00;13.23;;;4.10;75.20;;;;;;5046751;28;20056;-62
2020/12/12 06:33:23;;;;;;;22.65;12.93;;;4.20;75.20;;;;;;5043550;28;20037;-62
2020/12/12 06:35:49;;;;;;;20.35;13.30;;;4.00;74.90;;;;;;5045686;28;20336;-62
2020/12/12 06:38:26;;;;;;;22.63;13.40;;;4.00;74.90;;;;;;5026637;28;20065;-61
2020/12/12 06:40:54;;;;;;;22.90;13.95;;;3.90;75.30;;;;;;5023674;28;20113;-61
2020/12/12 06:43:32;;;;;;;22.17;12.80;;;3.60;75.90;;;;;;5024348;28;20062;-61
2020/12/12 06:45:59;;;;;;;21.40;12.40;;;3.50;76.80;;;;;;5024290;28;20034;-61
2020/12/12 06:48:26;;;;;;;23.02;13.00;;;3.50;77.00;;;;;;5022699;28;20034;-61
2020/12/12 06:50:52;;;;;;;23.83;13.05;;;3.70;76.80;;;;;;5025862;28;20034;-62
2020/12/12 06:53:29;;;;;;;21.88;13.10;;;3.80;76.30;;;;;;5024484;28;20042;-62
2020/12/12 06:56:17;;;;;;;26.45;12.52;;;3.90;76.30;;;;;;5022479;28;20040;-61
2020/12/12 06:58:43;;;;;;;23.85;12.68;;;3.90;76.20;;;;;;5036289;28;20046;-61
2020/12/12 07:01:31;;;;;;;35.55;13.30;;;4.00;75.90;;;;;;5043924;28;20068;-62
2020/12/12 07:04:04;;;;;;;24.50;13.30;;;3.90;75.40;;;;;;5036344;28;20033;-63
2020/12/12 07:06:31;;;;;;;20.10;12.35;;;4.00;75.80;;;;;;5027159;28;20206;-64
2020/12/12 07:09:01;;;;;;;23.20;13.45;;;4.10;76.10;;;;;;5044800;28;20236;-65
2020/12/12 07:11:26;;;;;;;22.98;12.13;;;4.10;76.00;;;;;;5043981;28;20033;-68
2020/12/12 07:13:53;;;;;;;19.95;12.77;;;4.10;76.10;;;;;;5043436;28;20032;-67
2020/12/12 07:16:20;;;;;;;20.05;12.27;;;4.20;76.10;;;;;;5043555;28;20105;-64
2020/12/12 07:18:46;;;;;;;22.38;12.55;;;4.10;76.00;;;;;;5043660;28;20313;-65
2020/12/12 07:21:12;;;;;;;22.98;12.77;;;4.20;75.70;;;;;;5043051;28;20084;-65
2020/12/12 07:23:40;;;;;;;21.52;12.73;;;4.10;75.60;;;;;;5060574;28;20317;-66
2020/12/12 07:26:06;;;;;;;21.63;12.23;;;4.20;75.70;;;;;;5027085;28;20092;-67
2020/12/12 07:28:32;;;;;;;20.30;11.95;;;4.30;76.10;;;;;;5035064;28;20037;-66
2020/12/12 07:30:58;;;;;;;20.05;12.02;;;4.30;76.20;;;;;;5043117;28;20030;-67
2020/12/12 07:33:24;;;;;;;25.20;11.98;;;4.40;75.90;;;;;;5043026;28;20033;-64
2020/12/12 07:35:50;;;;;;;21.00;12.48;;;4.20;75.60;;;;;;5044579;28;20343;-66
2020/12/12 07:38:15;;;;;;;21.45;12.80;;;4.20;75.50;;;;;;5023178;28;20108;-68
2020/12/12 07:40:41;;;;;;;19.55;11.88;;;4.20;75.60;;;;;;5036472;28;20092;-68
2020/12/12 07:43:07;;;;;;;20.27;12.57;;;4.00;75.50;;;;;;5042878;28;20041;-64
2020/12/12 07:48:17;;;;;;;20.52;12.02;;;4.20;75.60;;;;;;5074952;28;20096;-66
2020/12/12 07:50:43;;;;;;;21.45;12.60;;;4.20;75.50;;;;;;5044393;28;20340;-66
2020/12/12 07:53:13;;;;;;;19.75;11.98;;;4.10;75.60;;;;;;5040421;28;20044;-66
2020/12/12 07:55:43;;;;;;;21.42;12.07;;;4.10;75.90;;;;;;5043195;28;20037;-66
2020/12/12 07:58:16;;;;;;;20.17;12.52;;;4.20;75.90;;;;;;5049952;28;20034;-65
2020/12/12 08:00:41;;;;;;;20.85;11.82;;;4.20;75.90;;;;;;5021611;28;20061;-65
2020/12/12 08:03:07;;;;;;;19.25;11.77;;;4.40;76.30;;;;;;5021773;28;20045;-67
2020/12/12 08:05:33;;;;;;;22.65;12.68;;;4.40;76.00;;;;;;5024678;28;20038;-67
2020/12/12 08:07:58;;;;;;;22.58;12.95;;;4.40;75.80;;;;;;5022445;28;20061;-67
2020/12/12 08:10:24;;;;;;;19.52;11.75;;;4.40;75.30;;;;;;5023160;28;20045;-61
2020/12/12 08:12:50;;;;;;;19.02;11.93;;;4.40;75.20;;;;;;5022842;28;20030;-61
2020/12/12 08:15:26;;;;;;;20.88;12.63;;;4.40;75.40;;;;;;5021642;28;20096;-62
2020/12/12 08:17:51;;;;;;;21.63;12.73;;;4.40;75.50;;;;;;5024264;28;20245;-61
2020/12/12 08:20:23;;;;;;;21.83;12.80;;;4.40;75.30;;;;;;5023078;28;20049;-61
2020/12/12 08:22:49;;;;;;;20.75;13.07;;;4.50;75.30;;;;;;5023108;28;20042;-61
2020/12/12 08:25:15;;;;;;;21.80;12.50;;;4.60;75.30;;;;;;5054850;28;20348;-61
2020/12/12 08:27:40;;;;;;;21.17;12.07;;;4.60;75.40;;;;;;5022136;28;20041;-61
2020/12/12 08:30:07;;;;;;;19.85;11.18;;;4.70;75.50;;;;;;5022467;28;20033;-61
2020/12/12 08:32:35;;;;;;;18.83;12.27;;;4.70;75.40;;;;;;5024403;28;20034;-61
2020/12/12 08:35:14;;;;;;;20.88;12.85;;;4.60;75.10;;;;;;5022981;28;20034;-61
2020/12/12 08:37:40;;;;;;;20.35;12.20;;;4.60;75.10;;;;;;5022883;28;20321;-61
2020/12/12 08:40:09;;;;;;;24.63;12.07;;;4.50;75.20;;;;;;5022553;28;20053;-61
2020/12/12 08:42:35;;;;;;;21.48;11.85;;;4.50;75.50;;;;;;5054633;28;20270;-61
2020/12/12 08:45:13;;;;;;;21.58;11.90;;;4.70;75.40;;;;;;5024210;28;20136;-61
2020/12/12 08:47:39;;;;;;;19.70;12.07;;;4.80;75.70;;;;;;5005606;28;20030;-61
2020/12/12 08:50:05;;;;;;;21.50;12.05;;;4.90;75.90;;;;;;5038639;28;20101;-61
2020/12/12 08:52:30;;;;;;;19.27;11.48;;;5.00;75.80;;;;;;5042238;28;20044;-61
2020/12/12 08:55:00;;;;;;;18.92;12.25;;;4.90;74.80;;;;;;5041969;28;20206;-62
2020/12/12 08:57:25;;;;;;;21.55;12.30;;;4.90;75.10;;;;;;5041924;28;20056;-61
2020/12/12 09:00:01;;;;;;;17.60;11.10;;;5.00;75.70;;;;;;5043577;28;20021;-61
2020/12/12 09:02:27;;;;;;;23.10;11.45;;;4.90;75.40;;;;;;5042924;28;20092;-61
2020/12/12 09:05:11;;;;;;;21.88;12.10;;;4.90;75.70;;;;;;5042470;28;20033;-62
2020/12/12 09:07:37;;;;;;;22.52;11.40;;;4.80;75.70;;;;;;5041563;28;20080;-62
2020/12/12 09:10:13;;;;;;;20.75;11.57;;;4.70;76.00;;;;;;5041901;28;20050;-62
2020/12/12 09:12:49;;;;;;;19.00;11.75;;;4.80;76.20;;;;;;5044145;28;20045;-62
2020/12/12 09:15:15;;;;;;;19.00;11.30;;;4.90;76.40;;;;;;5044214;28;20055;-61
2020/12/12 09:17:41;;;;;;;19.95;11.35;;;5.00;76.40;;;;;;5027598;28;20030;-62
2020/12/12 09:20:07;;;;;;;18.05;11.13;;;5.00;76.60;;;;;;5025136;28;20042;-62
2020/12/12 09:22:33;;;;;;;18.00;11.05;;;5.10;76.10;;;;;;5020917;28;20100;-62
2020/12/12 09:24:59;;;;;;;18.77;10.75;;;5.00;76.20;;;;;;5025911;28;20046;-62
2020/12/12 09:27:25;;;;;;;19.60;10.20;;;4.90;76.20;;;;;;5024757;28;20273;-63
2020/12/12 09:29:50;;;;;;;16.20;10.30;;;5.00;76.10;;;;;;5027579;28;20034;-63
2020/12/12 09:32:16;;;;;;;18.02;10.43;;;5.00;76.00;;;;;;5044040;28;20056;-62
2020/12/12 09:34:41;;;;;;;16.95;10.57;;;5.10;76.20;;;;;;5077734;28;20057;-63
2020/12/12 09:37:07;;;;;;;16.50;9.63;;;5.20;76.20;;;;;;5045165;28;20400;-62
2020/12/12 09:39:33;;;;;;;17.05;10.20;;;5.20;75.70;;;;;;5045198;28;20063;-63
2020/12/12 09:41:58;;;;;;;14.73;9.65;;;5.20;75.70;;;;;;5044342;28;20093;-62
2020/12/12 09:44:24;;;;;;;14.20;9.48;;;5.30;76.00;;;;;;5046503;28;20067;-62
2020/12/12 09:46:50;;;;;;;16.50;9.93;;;5.40;76.20;;;;;;5045415;28;20038;-62
2020/12/12 09:49:15;;;;;;;17.83;9.80;;;5.50;76.20;;;;;;5044413;28;20033;-63
2020/12/12 09:51:45;;;;;;;16.35;9.20;;;5.50;76.20;;;;;;5045072;28;20037;-63
2020/12/12 09:54:11;;;;;;;13.10;8.55;;;5.60;76.20;;;;;;5027348;28;20028;-63
2020/12/12 09:56:37;;;;;;;13.55;8.75;;;5.50;75.70;;;;;;5046399;28;20025;-65
2020/12/12 09:59:03;;;;;;;13.35;8.10;;;5.50;76.00;;;;;;5045054;28;20042;-62
2020/12/12 10:01:28;;;;;;;12.10;7.93;;;5.60;76.40;;;;;;5045138;28;20048;-62
2020/12/12 10:03:54;;;;;;;11.80;7.55;;;5.60;76.20;;;;;;5044142;28;20069;-62
2020/12/12 10:06:20;;;;;;;13.38;7.57;;;5.70;76.10;;;;;;5044689;28;20139;-62
2020/12/12 10:08:45;;;;;;;11.35;7.10;;;5.80;75.80;;;;;;5078173;28;20233;-63
2020/12/12 10:11:11;;;;;;;12.98;7.57;;;5.70;75.30;;;;;;5045151;28;20041;-63
2020/12/12 10:13:36;;;;;;;11.25;6.50;;;5.70;75.60;;;;;;5044920;28;20052;-63
2020/12/12 10:16:02;;;;;;;9.23;5.85;;;5.90;75.60;;;;;;5035228;28;20038;-61
2020/12/12 10:18:28;;;;;;;7.78;5.15;;;5.80;74.50;;;;;;5024243;28;20042;-61
2020/12/12 10:20:53;;;;;;;10.73;5.22;;;5.80;74.30;;;;;;5040172;28;20033;-61
2020/12/12 10:23:19;;;;;;;9.05;5.00;;;5.90;74.30;;;;;;5025618;28;20046;-61
2020/12/12 10:25:45;;;;;;;9.05;5.50;;;5.90;73.90;;;;;;5024802;28;20049;-62
2020/12/12 10:28:10;;;;;;;10.05;6.75;;;6.00;74.10;;;;;;5035469;28;20050;-61
2020/12/12 10:30:36;;;;;;;10.43;6.50;;;6.00;74.40;;;;;;5044596;28;20213;-61
2020/12/12 10:33:02;;;;;;;8.63;5.97;;;6.00;74.10;;;;;;5043230;28;20034;-61
2020/12/12 10:35:28;;;;;;;12.43;6.28;;;6.00;73.40;;;;;;5028376;28;20033;-61
2020/12/12 10:37:55;;;;;;;11.48;6.60;;;6.10;74.00;;;;;;5059799;28;20300;-61
2020/12/12 10:40:26;;;;;;;10.18;5.72;;;6.20;74.30;;;;;;5059095;28;20233;-60
2020/12/12 10:42:51;;;;;;;9.32;5.50;;;6.10;73.70;;;;;;5041281;28;20030;-61
2020/12/12 10:45:17;;;;;;;8.18;5.53;;;6.00;73.90;;;;;;5044155;28;20264;-60
2020/12/12 10:47:42;;;;;;;8.55;4.75;;;6.00;74.30;;;;;;5045635;28;20045;-61
2020/12/12 10:50:08;;;;;;;9.05;5.28;;;6.10;73.60;;;;;;5025547;28;20071;-60
2020/12/12 10:52:34;;;;;;;9.13;5.30;;;6.10;73.00;;;;;;5070023;28;20083;-61
2020/12/12 10:55:01;;;;;;;8.02;5.15;;;6.10;73.30;;;;;;5043921;28;20033;-60
2020/12/12 10:57:26;;;;;;;6.65;4.63;;;6.30;72.80;;;;;;5074081;28;20041;-60
2020/12/12 10:59:52;;;;;;;9.48;4.60;;;6.40;72.30;;;;;;5045434;28;20030;-60
2020/12/12 11:02:17;;;;;;;7.78;4.10;;;6.50;72.40;;;;;;5044162;28;20038;-60
2020/12/12 11:04:43;;;;;;;6.60;3.92;;;6.60;71.80;;;;;;5044005;28;20083;-60
2020/12/12 11:07:09;;;;;;;9.63;3.85;;;6.80;71.80;;;;;;5043884;28;20041;-60
2020/12/12 11:09:35;;;;;;;4.95;3.30;;;7.00;71.90;;;;;;5043347;28;20359;-61
2020/12/12 11:12:01;;;;;;;6.63;3.30;;;7.10;70.00;;;;;;5075413;28;20033;-60
2020/12/12 11:14:28;;;;;;;7.65;3.33;;;7.30;70.00;;;;;;5045454;28;20037;-64
2020/12/12 11:16:55;;;;;;;6.25;3.33;;;7.40;70.30;;;;;;5043926;28;20052;-63
2020/12/12 11:19:21;;;;;;;4.85;3.25;;;7.50;69.80;;;;;;5043608;28;20175;-66
2020/12/12 11:21:46;;;;;;;5.05;3.33;;;7.40;69.20;;;;;;5043577;28;20083;-63
2020/12/12 11:24:12;;;;;;;5.68;3.45;;;7.50;70.40;;;;;;5043539;28;20052;-63
2020/12/12 11:26:38;;;;;;;9.65;3.50;;;7.50;70.20;;;;;;5045016;28;20360;-62
2020/12/12 11:29:03;;;;;;;6.32;3.45;;;7.50;69.80;;;;;;5074287;28;20041;-62
2020/12/12 11:31:29;;;;;;;6.82;3.70;;;7.50;70.20;;;;;;5043421;28;20037;-63
2020/12/12 11:34:01;;;;;;;9.82;4.30;;;7.40;70.60;;;;;;5042848;28;20229;-62
2020/12/12 11:39:24;;;;;;;7.10;4.43;;;7.50;70.70;;;;;;5043234;28;20324;-62
2020/12/12 11:44:52;;;;;;;5.90;3.65;;;7.60;70.80;;;;;;5043358;28;20036;-62
2020/12/12 11:47:24;;;;;;;4.80;3.38;;;7.70;71.10;;;;;;5042117;28;20033;-62
2020/12/12 11:49:50;;;;;;;4.20;3.10;;;7.80;70.70;;;;;;5043079;28;20053;-62
2020/12/12 11:52:16;;;;;;;5.07;2.90;;;7.80;71.00;;;;;;5031427;28;20061;-61
2020/12/12 11:54:42;;;;;;;4.68;3.00;;;7.90;70.50;;;;;;5029125;28;20052;-61
2020/12/12 11:57:08;;;;;;;5.35;3.03;;;7.90;70.10;;;;;;5040925;28;20055;-61
2020/12/12 11:59:34;;;;;;;9.68;3.22;;;7.90;69.80;;;;;;5023905;28;20038;-61
2020/12/12 12:01:59;;;;;;;4.15;2.83;;;7.90;69.80;;;;;;5039511;28;20163;-61
2020/12/12 12:04:25;;;;;;;4.65;3.10;;;7.80;68.30;;;;;;5041674;28;20080;-61
2020/12/12 12:06:51;;;;;;;5.38;3.50;;;7.90;69.50;;;;;;5042465;28;20041;-61
2020/12/12 12:09:26;;;;;;;6.03;3.55;;;8.00;70.20;;;;;;5042396;28;20233;-62
2020/12/12 12:11:52;;;;;;;5.28;3.40;;;7.90;69.20;;;;;;5043877;28;20249;-62
2020/12/12 12:14:17;;;;;;;4.90;3.33;;;7.90;69.20;;;;;;5042718;28;20091;-62
2020/12/12 12:16:43;;;;;;;5.95;3.80;;;8.00;69.90;;;;;;5043055;28;20075;-61
2020/12/12 12:19:11;;;;;;;6.28;3.80;;;8.00;69.20;;;;;;5042332;28;20041;-58
2020/12/12 12:21:37;;;;;;;6.10;3.45;;;8.10;69.40;;;;;;5049961;28;20034;-58
2020/12/12 12:24:04;;;;;;;6.05;3.95;;;8.10;69.50;;;;;;5022814;28;20191;-58
2020/12/12 12:26:30;;;;;;;6.05;3.97;;;8.00;68.90;;;;;;5024928;28;20077;-58
2020/12/12 12:28:56;;;;;;;4.75;3.50;;;8.00;69.30;;;;;;5022979;28;20045;-58
2020/12/12 12:31:22;;;;;;;6.90;3.70;;;8.10;69.60;;;;;;5022964;28;20109;-61
2020/12/12 12:33:48;;;;;;;5.07;3.63;;;8.10;69.80;;;;;;5022405;28;20045;-61
2020/12/12 12:36:15;;;;;;;5.40;3.67;;;8.10;69.50;;;;;;5022451;28;20233;-61
2020/12/12 12:38:40;;;;;;;6.03;4.05;;;8.00;69.60;;;;;;5023712;28;20030;-61
2020/12/12 12:41:06;;;;;;;7.03;4.88;;;8.00;69.70;;;;;;5022948;28;20092;-61
2020/12/12 12:43:32;;;;;;;6.72;3.83;;;8.10;69.40;;;;;;5005166;28;20104;-61
2020/12/12 12:45:57;;;;;;;5.88;3.33;;;8.10;69.80;;;;;;5023908;28;20217;-61